createdAt,value
2018-02-01T00:03:32.739Z,4.03
2018-02-01T00:08:35.274Z,6.33
2018-02-01T00:13:37.901Z,4.10
2018-02-01T00:18:40.412Z,6.97
2018-02-01T00:23:43.736Z,6.17
2018-02-01T00:28:46.275Z,4.00
2018-02-01T00:33:48.846Z,2.17
2018-02-01T00:38:52.387Z,2.27
2018-02-01T00:43:55.554Z,2.00
2018-02-01T00:48:58.124Z,6.30
2018-02-01T00:54:01.271Z,4.77
2018-02-01T00:59:04.549Z,3.10
2018-02-01T01:04:07.347Z,2.97
2018-02-01T01:09:09.883Z,2.70
2018-02-01T01:14:13.262Z,3.00
2018-02-01T01:19:16.498Z,3.87
2018-02-01T01:24:20.731Z,7.03
2018-02-01T01:29:24.098Z,2.80
2018-02-01T01:34:27.000Z,5.37
2018-02-01T01:39:29.907Z,2.53
2018-02-01T01:44:32.463Z,5.10
2018-02-01T01:49:35.761Z,2.47
2018-02-01T01:54:38.295Z,1.70
2018-02-01T01:59:40.827Z,6.37
2018-02-01T02:04:43.346Z,10.10
2018-02-01T02:09:45.907Z,6.20
2018-02-01T02:14:48.532Z,4.60
2018-02-01T02:19:51.942Z,5.20
2018-02-01T02:24:56.008Z,5.87
2018-02-01T02:29:58.526Z,4.30
2018-02-01T02:35:01.203Z,5.30
2018-02-01T02:40:03.926Z,6.17
2018-02-01T02:45:06.433Z,8.73
2018-02-01T02:50:09.044Z,3.30
2018-02-01T02:55:11.958Z,7.90
2018-02-01T03:00:15.156Z,4.47
2018-02-01T03:05:17.699Z,5.83
2018-02-01T03:10:20.214Z,3.53
2018-02-01T03:15:23.306Z,3.50
2018-02-01T03:20:26.052Z,7.27
2018-02-01T03:25:28.653Z,6.63
2018-02-01T03:30:32.154Z,3.77
2018-02-01T03:35:34.692Z,4.97
2018-02-01T03:40:37.343Z,3.57
2018-02-01T03:45:40.672Z,3.30
2018-02-01T03:50:43.202Z,5.07
2018-02-01T03:55:45.759Z,3.53
2018-02-01T04:00:49.031Z,2.93
2018-02-01T04:05:51.607Z,3.97
2018-02-01T04:10:54.135Z,1.37
2018-02-01T04:15:56.650Z,2.53
2018-02-01T04:21:00.537Z,7.20
2018-02-01T04:26:03.291Z,4.90
2018-02-01T04:31:06.503Z,7.60
2018-02-01T04:36:09.053Z,5.87
2018-02-01T04:41:11.567Z,2.90
2018-02-01T04:46:14.201Z,2.83
2018-02-01T04:51:16.747Z,5.03
2018-02-01T04:56:20.112Z,4.40
2018-02-01T05:01:22.670Z,4.30
2018-02-01T05:06:25.432Z,6.97
2018-02-01T05:11:28.029Z,2.00
2018-02-01T05:16:30.603Z,8.83
2018-02-01T05:21:33.121Z,6.60
2018-02-01T05:26:35.859Z,1.40
2018-02-01T05:31:39.244Z,4.40
2018-02-01T05:36:41.789Z,4.43
2018-02-01T05:41:44.359Z,1.20
2018-02-01T05:46:46.946Z,6.30
2018-02-01T05:51:49.594Z,3.00
2018-02-01T05:56:52.143Z,2.50
2018-02-01T06:01:55.422Z,2.67
2018-02-01T06:06:58.257Z,2.47
2018-02-01T06:12:01.564Z,3.90
2018-02-01T06:17:04.854Z,5.27
2018-02-01T06:22:07.881Z,4.63
2018-02-01T06:27:11.264Z,5.83
2018-02-01T06:32:13.806Z,1.53
2018-02-01T06:37:16.348Z,3.37
2018-02-01T06:42:18.856Z,1.87
2018-02-01T06:47:21.350Z,6.87
2018-02-01T06:52:24.631Z,1.83
2018-02-01T06:57:27.189Z,1.40
2018-02-01T07:02:30.475Z,3.80
2018-02-01T07:07:33.010Z,3.27
2018-02-01T07:12:35.742Z,4.00
2018-02-01T07:17:38.369Z,2.90
2018-02-01T07:22:40.912Z,2.40
2018-02-01T07:27:43.424Z,2.50
2018-02-01T07:32:45.939Z,2.93
2018-02-01T07:37:49.308Z,3.63
2018-02-01T07:42:52.269Z,4.60
2018-02-01T07:47:55.686Z,3.43
2018-02-01T07:52:59.003Z,3.37
2018-02-01T07:58:02.277Z,4.97
2018-02-01T08:03:04.910Z,1.43
2018-02-01T08:08:08.808Z,2.50
2018-02-01T08:13:11.430Z,2.63
2018-02-01T08:18:14.019Z,1.83
2018-02-01T08:23:17.292Z,3.23
2018-02-01T08:28:19.854Z,1.73
2018-02-01T08:33:22.440Z,2.03
2018-02-01T08:38:25.091Z,3.37
2018-02-01T08:43:27.711Z,0.90
2018-02-01T08:48:31.328Z,1.77
2018-02-01T08:53:34.086Z,4.30
2018-02-01T08:58:37.153Z,2.03
2018-02-01T09:03:39.721Z,0.90
2018-02-01T09:08:43.115Z,1.80
2018-02-01T09:13:45.629Z,1.20
2018-02-01T09:18:48.264Z,1.83
2018-02-01T09:23:50.768Z,6.00
2018-02-01T09:28:53.880Z,5.00
2018-02-01T09:33:56.632Z,3.50
2018-02-01T09:38:59.473Z,5.43
2018-02-01T09:44:02.213Z,5.67
2018-02-01T09:49:04.732Z,2.50
2018-02-01T09:54:07.264Z,1.77
2018-02-01T09:59:11.208Z,3.80
2018-02-01T10:04:13.679Z,2.90
2018-02-01T10:09:16.174Z,3.90
2018-02-01T10:14:18.804Z,3.53
2018-02-01T10:19:21.293Z,2.07
2018-02-01T10:24:24.019Z,4.33
2018-02-01T10:29:29.597Z,3.07
2018-02-01T10:34:32.161Z,4.00
2018-02-01T10:39:37.997Z,3.80
2018-02-01T10:44:41.428Z,3.73
2018-02-01T10:49:44.056Z,3.57
2018-02-01T10:54:47.310Z,2.43
2018-02-01T10:59:49.831Z,2.00
2018-02-01T11:04:52.423Z,1.87
2018-02-01T11:09:54.948Z,14.87
2018-02-01T11:14:57.446Z,3.60
2018-02-01T11:19:59.972Z,5.57
2018-02-01T11:25:02.569Z,2.93
2018-02-01T11:30:06.186Z,2.13
2018-02-01T11:35:09.156Z,2.87
2018-02-01T11:40:12.018Z,1.70
2018-02-01T11:45:15.369Z,2.40
2018-02-01T11:50:18.873Z,2.70
2018-02-01T11:55:22.157Z,2.43
2018-02-01T12:00:24.752Z,1.73
2018-02-01T12:05:27.284Z,5.43
2018-02-01T12:10:29.802Z,2.53
2018-02-01T12:15:32.986Z,6.57
2018-02-01T12:20:36.253Z,4.33
2018-02-01T12:25:38.868Z,8.10
2018-02-01T12:30:42.185Z,7.67
2018-02-01T12:35:45.215Z,9.07
2018-02-01T12:40:48.818Z,5.20
2018-02-01T12:50:59.494Z,5.20
2018-02-01T12:56:02.948Z,2.47
2018-02-01T13:01:05.449Z,14.17
2018-02-01T13:06:07.954Z,4.10
2018-02-01T13:11:10.472Z,3.40
2018-02-01T13:16:12.987Z,4.50
2018-02-01T13:21:15.614Z,5.73
2018-02-01T13:26:18.923Z,14.40
2018-02-01T13:31:22.116Z,4.80
2018-02-01T13:36:24.634Z,9.53
2018-02-01T13:41:27.312Z,5.80
2018-02-01T13:46:30.326Z,9.43
2018-02-01T13:51:32.922Z,5.63
2018-02-01T13:56:35.476Z,8.50
2018-02-01T14:01:38.059Z,4.03
2018-02-01T14:06:40.679Z,3.00
2018-02-01T14:11:44.458Z,3.27
2018-02-01T14:16:47.051Z,4.77
2018-02-01T14:21:50.642Z,3.53
2018-02-01T14:26:53.168Z,2.43
2018-02-01T14:31:56.752Z,5.17
2018-02-01T14:36:59.305Z,5.00
2018-02-01T14:42:01.863Z,5.47
2018-02-01T14:47:04.830Z,2.83
2018-02-01T14:52:07.895Z,5.00
2018-02-01T14:57:10.532Z,3.50
2018-02-01T15:02:13.186Z,2.27
2018-02-01T15:07:16.596Z,7.27
2018-02-01T15:12:19.232Z,4.73
2018-02-01T15:17:21.976Z,3.53
2018-02-01T15:22:24.739Z,9.30
2018-02-01T15:27:27.367Z,6.60
2018-02-01T15:32:30.290Z,5.40
2018-02-01T15:37:33.783Z,4.13
2018-02-01T15:42:37.316Z,3.80
2018-02-01T15:47:39.916Z,3.23
2018-02-01T15:52:43.432Z,3.10
2018-02-01T15:57:46.131Z,3.83
2018-02-01T16:02:49.612Z,4.50
2018-02-01T16:07:52.675Z,3.33
2018-02-01T16:12:55.234Z,2.47
2018-02-01T16:17:58.013Z,4.00
2018-02-01T16:23:00.563Z,1.87
2018-02-01T16:28:03.644Z,6.20
2018-02-01T16:33:07.877Z,4.90
2018-02-01T16:38:11.541Z,5.10
2018-02-01T16:43:14.121Z,2.10
2018-02-01T16:48:16.731Z,3.57
2018-02-01T16:53:19.282Z,3.17
2018-02-01T16:58:21.955Z,5.20
2018-02-01T17:03:25.074Z,3.13
2018-02-01T17:08:28.388Z,4.33
2018-02-01T17:13:30.940Z,2.50
2018-02-01T17:18:33.991Z,2.80
2018-02-01T17:23:37.785Z,3.80
2018-02-01T17:28:40.448Z,4.47
2018-02-01T17:33:43.011Z,2.57
2018-02-01T17:38:46.072Z,3.70
2018-02-01T17:43:48.816Z,3.87
2018-02-01T17:48:51.514Z,2.70
2018-02-01T17:53:55.735Z,3.73
2018-02-01T17:59:03.282Z,5.40
2018-02-01T18:04:06.440Z,4.77
2018-02-01T18:09:09.071Z,8.30
2018-02-01T18:14:11.619Z,3.93
2018-02-01T18:19:14.362Z,5.60
2018-02-01T18:24:16.979Z,4.80
2018-02-01T18:29:19.511Z,4.60
2018-02-01T18:34:22.487Z,9.97
2018-02-01T18:39:25.320Z,16.73
2018-02-01T18:44:28.711Z,23.60
2018-02-01T18:49:31.511Z,26.20
2018-02-01T18:54:34.557Z,28.43
2018-02-01T18:59:37.500Z,20.37
2018-02-01T19:04:40.468Z,22.50
2018-02-01T19:09:44.072Z,20.63
2018-02-01T19:14:46.903Z,19.07
2018-02-01T19:19:49.620Z,18.07
2018-02-01T19:24:53.013Z,13.80
2018-02-01T19:29:56.423Z,13.70
2018-02-01T19:34:58.964Z,13.80
2018-02-01T19:40:01.531Z,13.87
2018-02-01T19:45:04.294Z,11.20
2018-02-01T19:50:07.196Z,11.37
2018-02-01T19:55:09.829Z,11.03
2018-02-01T20:00:12.496Z,8.27
2018-02-01T20:05:16.121Z,9.13
2018-02-01T20:10:18.695Z,7.83
2018-02-01T20:15:21.462Z,6.70
2018-02-01T20:20:24.308Z,10.00
2018-02-01T20:25:26.847Z,8.33
2018-02-01T20:30:29.373Z,8.97
2018-02-01T20:35:31.939Z,10.60
2018-02-01T20:40:34.492Z,10.23
2018-02-01T20:45:37.221Z,11.37
2018-02-01T20:50:39.788Z,14.47
2018-02-01T20:55:42.704Z,11.97
2018-02-01T21:00:45.264Z,11.30
2018-02-01T21:05:48.598Z,10.10
2018-02-01T21:10:51.279Z,13.23
2018-02-01T21:15:53.852Z,9.17
2018-02-01T21:20:56.381Z,10.40
2018-02-01T21:25:59.259Z,9.23
2018-02-01T21:31:01.788Z,8.83
2018-02-01T21:36:04.317Z,7.17
2018-02-01T21:41:06.927Z,7.57
2018-02-01T21:46:09.646Z,11.97
2018-02-01T21:51:13.906Z,13.43
2018-02-01T21:56:16.498Z,9.70
2018-02-01T22:01:19.438Z,10.90
2018-02-01T22:06:22.316Z,9.93
2018-02-01T22:11:24.898Z,7.63
2018-02-01T22:16:27.501Z,7.50
2018-02-01T22:21:30.081Z,10.57
2018-02-01T22:26:32.658Z,6.43
2018-02-01T22:31:36.271Z,7.83
2018-02-01T22:36:40.561Z,9.30
2018-02-01T22:41:43.131Z,5.43
2018-02-01T22:46:45.728Z,5.53
2018-02-01T22:51:48.304Z,5.30
2018-02-01T22:56:50.899Z,3.47
2018-02-01T23:01:53.459Z,6.50
2018-02-01T23:06:57.002Z,5.53
2018-02-01T23:11:59.591Z,4.73
2018-02-01T23:17:02.122Z,3.67
2018-02-01T23:22:04.850Z,8.57
2018-02-01T23:27:07.482Z,8.83
2018-02-01T23:32:10.180Z,14.60
2018-02-01T23:37:13.564Z,3.60
2018-02-01T23:42:16.099Z,11.13
2018-02-01T23:47:18.651Z,8.30
2018-02-01T23:52:21.177Z,8.17
2018-02-01T23:57:23.744Z,5.37
